sensor_id;sensor_type;location;lat;lon;timestamp;P1;durP1;ratioP1;P2;durP2;ratioP2
68229;SDS011;55048;52.220;5.160;2023-03-21T00:00:16;14.95;;;9.40;;
68229;SDS011;55048;52.220;5.160;2023-03-21T00:02:41;11.05;;;9.43;;
68229;SDS011;55048;52.220;5.160;2023-03-21T00:05:07;11.20;;;8.18;;
68229;SDS011;55048;52.220;5.160;2023-03-21T00:07:33;9.35;;;8.35;;
68229;SDS011;55048;52.220;5.160;2023-03-21T00:09:58;12.23;;;8.82;;
68229;SDS011;55048;52.220;5.160;2023-03-21T00:12:23;11.68;;;9.30;;
68229;SDS011;55048;52.220;5.160;2023-03-21T00:14:49;9.73;;;8.60;;
68229;SDS011;55048;52.220;5.160;2023-03-21T00:17:14;16.75;;;10.05;;
68229;SDS011;55048;52.220;5.160;2023-03-21T00:19:40;10.70;;;8.82;;
68229;SDS011;55048;52.220;5.160;2023-03-21T00:22:06;11.45;;;9.38;;
68229;SDS011;55048;52.220;5.160;2023-03-21T00:24:32;14.13;;;10.27;;
68229;SDS011;55048;52.220;5.160;2023-03-21T00:26:58;15.38;;;10.38;;
68229;SDS011;55048;52.220;5.160;2023-03-21T00:29:24;15.52;;;9.00;;
68229;SDS011;55048;52.220;5.160;2023-03-21T00:31:49;11.75;;;9.73;;
68229;SDS011;55048;52.220;5.160;2023-03-21T00:34:14;11.45;;;9.52;;
68229;SDS011;55048;52.220;5.160;2023-03-21T00:36:40;13.57;;;8.90;;
68229;SDS011;55048;52.220;5.160;2023-03-21T00:39:06;13.10;;;8.95;;
68229;SDS011;55048;52.220;5.160;2023-03-21T00:41:32;15.20;;;10.60;;
68229;SDS011;55048;52.220;5.160;2023-03-21T00:43:57;15.18;;;11.00;;
68229;SDS011;55048;52.220;5.160;2023-03-21T00:46:22;12.73;;;10.65;;
68229;SDS011;55048;52.220;5.160;2023-03-21T00:48:48;20.88;;;11.98;;
68229;SDS011;55048;52.220;5.160;2023-03-21T00:51:17;18.90;;;10.63;;
68229;SDS011;55048;52.220;5.160;2023-03-21T00:53:50;14.70;;;11.52;;
68229;SDS011;55048;52.220;5.160;2023-03-21T00:56:16;18.55;;;12.32;;
68229;SDS011;55048;52.220;5.160;2023-03-21T00:58:41;17.52;;;12.95;;
68229;SDS011;55048;52.220;5.160;2023-03-21T01:01:07;18.77;;;13.30;;
68229;SDS011;55048;52.220;5.160;2023-03-21T01:03:35;21.30;;;14.25;;
68229;SDS011;55048;52.220;5.160;2023-03-21T01:06:10;16.38;;;13.40;;
68229;SDS011;55048;52.220;5.160;2023-03-21T01:08:38;16.75;;;11.95;;
68229;SDS011;55048;52.220;5.160;2023-03-21T01:11:11;17.75;;;13.02;;
68229;SDS011;55048;52.220;5.160;2023-03-21T01:13:38;18.25;;;13.20;;
68229;SDS011;55048;52.220;5.160;2023-03-21T01:16:04;15.77;;;12.43;;
68229;SDS011;55048;52.220;5.160;2023-03-21T01:18:31;19.27;;;13.02;;
68229;SDS011;55048;52.220;5.160;2023-03-21T01:20:58;14.30;;;11.48;;
68229;SDS011;55048;52.220;5.160;2023-03-21T01:23:25;17.33;;;12.68;;
68229;SDS011;55048;52.220;5.160;2023-03-21T01:25:52;15.05;;;11.75;;
68229;SDS011;55048;52.220;5.160;2023-03-21T01:28:19;18.83;;;12.80;;
68229;SDS011;55048;52.220;5.160;2023-03-21T01:30:45;20.38;;;13.13;;
68229;SDS011;55048;52.220;5.160;2023-03-21T01:33:12;15.40;;;12.38;;
68229;SDS011;55048;52.220;5.160;2023-03-21T01:35:38;19.98;;;12.88;;
68229;SDS011;55048;52.220;5.160;2023-03-21T01:38:04;15.65;;;11.68;;
68229;SDS011;55048;52.220;5.160;2023-03-21T01:40:30;17.23;;;13.40;;
68229;SDS011;55048;52.220;5.160;2023-03-21T01:43:20;20.15;;;13.18;;
68229;SDS011;55048;52.220;5.160;2023-03-21T01:46:07;21.20;;;13.95;;
68229;SDS011;55048;52.220;5.160;2023-03-21T01:49:17;19.75;;;12.98;;
68229;SDS011;55048;52.220;5.160;2023-03-21T01:51:59;21.63;;;11.60;;
68229;SDS011;55048;52.220;5.160;2023-03-21T01:54:31;14.63;;;11.55;;
68229;SDS011;55048;52.220;5.160;2023-03-21T01:57:03;19.15;;;12.07;;
68229;SDS011;55048;52.220;5.160;2023-03-21T01:59:44;20.90;;;13.80;;
68229;SDS011;55048;52.220;5.160;2023-03-21T02:02:52;20.00;;;12.63;;
68229;SDS011;55048;52.220;5.160;2023-03-21T02:05:38;17.30;;;12.15;;
68229;SDS011;55048;52.220;5.160;2023-03-21T02:08:14;16.60;;;9.30;;
68229;SDS011;55048;52.220;5.160;2023-03-21T02:10:41;19.42;;;12.82;;
68229;SDS011;55048;52.220;5.160;2023-03-21T02:13:11;20.52;;;13.73;;
68229;SDS011;55048;52.220;5.160;2023-03-21T02:15:40;23.27;;;15.07;;
68229;SDS011;55048;52.220;5.160;2023-03-21T02:18:50;24.08;;;13.70;;
68229;SDS011;55048;52.220;5.160;2023-03-21T02:21:22;24.63;;;13.63;;
68229;SDS011;55048;52.220;5.160;2023-03-21T02:32:20;21.77;;;13.48;;
68229;SDS011;55048;52.220;5.160;2023-03-21T02:37:31;28.48;;;15.40;;
68229;SDS011;55048;52.220;5.160;2023-03-21T02:42:48;28.73;;;15.40;;
68229;SDS011;55048;52.220;5.160;2023-03-21T02:45:24;29.23;;;15.23;;
68229;SDS011;55048;52.220;5.160;2023-03-21T02:47:59;29.45;;;16.00;;
68229;SDS011;55048;52.220;5.160;2023-03-21T02:50:31;30.58;;;16.63;;
68229;SDS011;55048;52.220;5.160;2023-03-21T02:53:14;37.85;;;16.80;;
68229;SDS011;55048;52.220;5.160;2023-03-21T02:55:43;34.58;;;15.82;;
68229;SDS011;55048;52.220;5.160;2023-03-21T02:58:11;36.53;;;15.65;;
68229;SDS011;55048;52.220;5.160;2023-03-21T03:00:46;32.97;;;15.85;;
68229;SDS011;55048;52.220;5.160;2023-03-21T03:03:24;33.72;;;13.57;;
68229;SDS011;55048;52.220;5.160;2023-03-21T03:05:56;30.08;;;14.57;;
68229;SDS011;55048;52.220;5.160;2023-03-21T03:08:26;33.30;;;14.18;;
68229;SDS011;55048;52.220;5.160;2023-03-21T03:10:59;27.50;;;13.40;;
68229;SDS011;55048;52.220;5.160;2023-03-21T03:13:32;32.28;;;13.90;;
68229;SDS011;55048;52.220;5.160;2023-03-21T03:18:58;25.67;;;12.52;;
68229;SDS011;55048;52.220;5.160;2023-03-21T03:26:54;22.88;;;10.85;;
68229;SDS011;55048;52.220;5.160;2023-03-21T03:29:26;24.08;;;10.65;;
68229;SDS011;55048;52.220;5.160;2023-03-21T03:31:59;20.85;;;10.68;;
68229;SDS011;55048;52.220;5.160;2023-03-21T03:34:33;20.80;;;8.50;;
68229;SDS011;55048;52.220;5.160;2023-03-21T03:37:08;19.00;;;10.00;;
68229;SDS011;55048;52.220;5.160;2023-03-21T03:39:40;22.60;;;10.90;;
68229;SDS011;55048;52.220;5.160;2023-03-21T03:42:16;22.30;;;10.88;;
68229;SDS011;55048;52.220;5.160;2023-03-21T03:44:50;22.75;;;11.00;;
68229;SDS011;55048;52.220;5.160;2023-03-21T03:49:58;17.40;;;9.77;;
68229;SDS011;55048;52.220;5.160;2023-03-21T03:52:33;17.80;;;9.95;;
68229;SDS011;55048;52.220;5.160;2023-03-21T03:55:11;18.73;;;8.48;;
68229;SDS011;55048;52.220;5.160;2023-03-21T03:57:41;15.77;;;8.43;;
68229;SDS011;55048;52.220;5.160;2023-03-21T04:00:09;18.35;;;9.23;;
68229;SDS011;55048;52.220;5.160;2023-03-21T04:02:43;20.95;;;9.45;;
68229;SDS011;55048;52.220;5.160;2023-03-21T04:05:12;23.88;;;9.32;;
68229;SDS011;55048;52.220;5.160;2023-03-21T04:07:38;19.52;;;8.27;;
68229;SDS011;55048;52.220;5.160;2023-03-21T04:10:03;23.50;;;9.73;;
68229;SDS011;55048;52.220;5.160;2023-03-21T04:12:37;23.10;;;8.40;;
68229;SDS011;55048;52.220;5.160;2023-03-21T04:15:28;22.27;;;8.55;;
68229;SDS011;55048;52.220;5.160;2023-03-21T04:18:01;19.20;;;8.35;;
68229;SDS011;55048;52.220;5.160;2023-03-21T04:20:27;18.88;;;7.85;;
68229;SDS011;55048;52.220;5.160;2023-03-21T04:22:53;17.75;;;8.20;;
68229;SDS011;55048;52.220;5.160;2023-03-21T04:25:20;22.52;;;9.52;;
68229;SDS011;55048;52.220;5.160;2023-03-21T04:27:46;18.92;;;8.48;;
68229;SDS011;55048;52.220;5.160;2023-03-21T04:30:36;20.08;;;8.98;;
68229;SDS011;55048;52.220;5.160;2023-03-21T04:33:07;17.35;;;8.40;;
68229;SDS011;55048;52.220;5.160;2023-03-21T04:35:33;20.33;;;9.30;;
68229;SDS011;55048;52.220;5.160;2023-03-21T04:38:01;16.10;;;7.35;;
68229;SDS011;55048;52.220;5.160;2023-03-21T04:40:26;25.27;;;9.60;;
68229;SDS011;55048;52.220;5.160;2023-03-21T04:42:53;22.30;;;9.68;;
68229;SDS011;55048;52.220;5.160;2023-03-21T04:45:19;25.90;;;10.00;;
68229;SDS011;55048;52.220;5.160;2023-03-21T04:47:45;19.45;;;9.82;;
68229;SDS011;55048;52.220;5.160;2023-03-21T04:50:11;22.38;;;10.10;;
68229;SDS011;55048;52.220;5.160;2023-03-21T04:52:38;22.13;;;10.90;;
68229;SDS011;55048;52.220;5.160;2023-03-21T04:55:03;27.42;;;10.48;;
68229;SDS011;55048;52.220;5.160;2023-03-21T04:57:29;29.63;;;12.27;;
68229;SDS011;55048;52.220;5.160;2023-03-21T04:59:56;32.72;;;12.20;;
68229;SDS011;55048;52.220;5.160;2023-03-21T05:02:22;24.85;;;11.43;;
68229;SDS011;55048;52.220;5.160;2023-03-21T05:04:47;25.17;;;12.10;;
68229;SDS011;55048;52.220;5.160;2023-03-21T05:07:13;26.13;;;10.57;;
68229;SDS011;55048;52.220;5.160;2023-03-21T05:09:38;25.67;;;12.98;;
68229;SDS011;55048;52.220;5.160;2023-03-21T05:12:04;27.77;;;12.10;;
68229;SDS011;55048;52.220;5.160;2023-03-21T05:14:31;30.52;;;13.50;;
68229;SDS011;55048;52.220;5.160;2023-03-21T05:16:58;35.70;;;13.15;;
68229;SDS011;55048;52.220;5.160;2023-03-21T05:19:27;26.02;;;13.02;;
68229;SDS011;55048;52.220;5.160;2023-03-21T05:22:08;27.75;;;13.95;;
68229;SDS011;55048;52.220;5.160;2023-03-21T05:24:35;36.08;;;15.27;;
68229;SDS011;55048;52.220;5.160;2023-03-21T05:27:05;32.72;;;13.80;;
68229;SDS011;55048;52.220;5.160;2023-03-21T05:29:38;29.67;;;13.45;;
68229;SDS011;55048;52.220;5.160;2023-03-21T05:32:05;30.13;;;14.10;;
68229;SDS011;55048;52.220;5.160;2023-03-21T05:34:31;28.13;;;12.30;;
68229;SDS011;55048;52.220;5.160;2023-03-21T05:36:57;33.88;;;14.00;;
68229;SDS011;55048;52.220;5.160;2023-03-21T05:39:29;33.92;;;14.00;;
68229;SDS011;55048;52.220;5.160;2023-03-21T05:42:01;32.10;;;14.38;;
68229;SDS011;55048;52.220;5.160;2023-03-21T05:44:26;34.58;;;13.95;;
68229;SDS011;55048;52.220;5.160;2023-03-21T05:46:52;29.70;;;12.85;;
68229;SDS011;55048;52.220;5.160;2023-03-21T05:49:22;30.60;;;14.30;;
68229;SDS011;55048;52.220;5.160;2023-03-21T05:51:53;32.42;;;13.23;;
68229;SDS011;55048;52.220;5.160;2023-03-21T05:54:18;44.33;;;15.05;;
68229;SDS011;55048;52.220;5.160;2023-03-21T05:56:46;32.38;;;14.57;;
68229;SDS011;55048;52.220;5.160;2023-03-21T05:59:19;31.85;;;14.57;;
68229;SDS011;55048;52.220;5.160;2023-03-21T06:01:48;29.60;;;14.80;;
68229;SDS011;55048;52.220;5.160;2023-03-21T06:04:15;35.30;;;15.20;;
68229;SDS011;55048;52.220;5.160;2023-03-21T06:06:40;34.45;;;14.20;;
68229;SDS011;55048;52.220;5.160;2023-03-21T06:09:07;32.67;;;13.05;;
68229;SDS011;55048;52.220;5.160;2023-03-21T06:11:33;34.65;;;14.50;;
68229;SDS011;55048;52.220;5.160;2023-03-21T06:14:23;33.58;;;13.63;;
68229;SDS011;55048;52.220;5.160;2023-03-21T06:17:22;32.03;;;14.75;;
68229;SDS011;55048;52.220;5.160;2023-03-21T06:19:55;39.35;;;15.77;;
68229;SDS011;55048;52.220;5.160;2023-03-21T06:22:26;36.92;;;14.50;;
68229;SDS011;55048;52.220;5.160;2023-03-21T06:24:52;33.00;;;14.30;;
68229;SDS011;55048;52.220;5.160;2023-03-21T06:27:18;35.05;;;14.70;;
68229;SDS011;55048;52.220;5.160;2023-03-21T06:29:49;34.58;;;14.95;;
68229;SDS011;55048;52.220;5.160;2023-03-21T06:32:14;35.50;;;15.20;;
68229;SDS011;55048;52.220;5.160;2023-03-21T06:34:41;39.40;;;14.57;;
68229;SDS011;55048;52.220;5.160;2023-03-21T06:37:11;35.45;;;14.35;;
68229;SDS011;55048;52.220;5.160;2023-03-21T06:39:36;32.35;;;14.77;;
68229;SDS011;55048;52.220;5.160;2023-03-21T06:42:02;30.05;;;13.43;;
68229;SDS011;55048;52.220;5.160;2023-03-21T06:44:28;32.35;;;13.80;;
68229;SDS011;55048;52.220;5.160;2023-03-21T06:47:00;27.98;;;12.93;;
68229;SDS011;55048;52.220;5.160;2023-03-21T06:49:26;25.98;;;12.27;;
68229;SDS011;55048;52.220;5.160;2023-03-21T06:51:53;28.70;;;12.30;;
68229;SDS011;55048;52.220;5.160;2023-03-21T06:54:19;29.48;;;12.45;;
68229;SDS011;55048;52.220;5.160;2023-03-21T06:56:50;38.08;;;12.23;;
68229;SDS011;55048;52.220;5.160;2023-03-21T06:59:22;28.92;;;10.95;;
68229;SDS011;55048;52.220;5.160;2023-03-21T07:01:53;32.92;;;11.73;;
68229;SDS011;55048;52.220;5.160;2023-03-21T07:04:18;22.92;;;10.57;;
68229;SDS011;55048;52.220;5.160;2023-03-21T07:06:44;26.17;;;11.38;;
68229;SDS011;55048;52.220;5.160;2023-03-21T07:09:09;29.63;;;11.43;;
68229;SDS011;55048;52.220;5.160;2023-03-21T07:11:36;22.75;;;9.32;;
68229;SDS011;55048;52.220;5.160;2023-03-21T07:14:02;24.60;;;10.23;;
68229;SDS011;55048;52.220;5.160;2023-03-21T07:16:28;22.45;;;9.50;;
68229;SDS011;55048;52.220;5.160;2023-03-21T07:18:54;26.88;;;9.57;;
68229;SDS011;55048;52.220;5.160;2023-03-21T07:21:20;27.95;;;9.85;;
68229;SDS011;55048;52.220;5.160;2023-03-21T07:23:46;24.95;;;9.82;;
68229;SDS011;55048;52.220;5.160;2023-03-21T07:26:11;22.17;;;8.93;;
68229;SDS011;55048;52.220;5.160;2023-03-21T07:28:37;23.92;;;8.70;;
68229;SDS011;55048;52.220;5.160;2023-03-21T07:31:03;21.15;;;9.07;;
68229;SDS011;55048;52.220;5.160;2023-03-21T07:33:31;21.85;;;8.95;;
68229;SDS011;55048;52.220;5.160;2023-03-21T07:35:59;24.45;;;8.73;;
68229;SDS011;55048;52.220;5.160;2023-03-21T07:38:26;22.50;;;9.35;;
68229;SDS011;55048;52.220;5.160;2023-03-21T07:40:52;21.23;;;7.82;;
68229;SDS011;55048;52.220;5.160;2023-03-21T07:43:17;19.15;;;7.75;;
68229;SDS011;55048;52.220;5.160;2023-03-21T07:45:43;21.15;;;7.90;;
68229;SDS011;55048;52.220;5.160;2023-03-21T07:48:10;18.10;;;7.18;;
68229;SDS011;55048;52.220;5.160;2023-03-21T07:50:41;18.90;;;7.30;;
68229;SDS011;55048;52.220;5.160;2023-03-21T07:53:06;26.05;;;8.02;;
68229;SDS011;55048;52.220;5.160;2023-03-21T07:55:32;21.88;;;7.75;;
68229;SDS011;55048;52.220;5.160;2023-03-21T07:57:59;22.10;;;8.02;;
68229;SDS011;55048;52.220;5.160;2023-03-21T08:00:30;23.08;;;7.95;;
68229;SDS011;55048;52.220;5.160;2023-03-21T08:02:55;21.08;;;6.75;;
68229;SDS011;55048;52.220;5.160;2023-03-21T08:05:22;20.42;;;7.75;;
68229;SDS011;55048;52.220;5.160;2023-03-21T08:07:50;17.55;;;7.53;;
68229;SDS011;55048;52.220;5.160;2023-03-21T08:10:16;19.08;;;7.70;;
68229;SDS011;55048;52.220;5.160;2023-03-21T08:12:42;22.23;;;7.70;;
68229;SDS011;55048;52.220;5.160;2023-03-21T08:15:08;21.05;;;7.32;;
68229;SDS011;55048;52.220;5.160;2023-03-21T08:17:34;23.52;;;7.40;;
68229;SDS011;55048;52.220;5.160;2023-03-21T08:20:02;21.55;;;7.65;;
68229;SDS011;55048;52.220;5.160;2023-03-21T08:22:32;21.13;;;8.18;;
68229;SDS011;55048;52.220;5.160;2023-03-21T08:24:57;25.05;;;7.90;;
68229;SDS011;55048;52.220;5.160;2023-03-21T08:27:23;26.23;;;8.13;;
68229;SDS011;55048;52.220;5.160;2023-03-21T08:29:48;20.75;;;8.00;;
68229;SDS011;55048;52.220;5.160;2023-03-21T08:32:16;19.70;;;7.43;;
68229;SDS011;55048;52.220;5.160;2023-03-21T08:34:42;23.60;;;8.00;;
68229;SDS011;55048;52.220;5.160;2023-03-21T08:37:08;16.58;;;6.88;;
68229;SDS011;55048;52.220;5.160;2023-03-21T08:39:33;21.80;;;8.60;;
68229;SDS011;55048;52.220;5.160;2023-03-21T08:41:59;21.02;;;7.90;;
68229;SDS011;55048;52.220;5.160;2023-03-21T08:44:24;30.80;;;8.30;;
68229;SDS011;55048;52.220;5.160;2023-03-21T08:46:50;18.08;;;6.95;;
68229;SDS011;55048;52.220;5.160;2023-03-21T08:49:16;18.85;;;6.72;;
68229;SDS011;55048;52.220;5.160;2023-03-21T08:51:41;21.83;;;7.13;;
68229;SDS011;55048;52.220;5.160;2023-03-21T08:54:19;16.58;;;7.13;;
68229;SDS011;55048;52.220;5.160;2023-03-21T08:56:45;14.07;;;6.15;;
68229;SDS011;55048;52.220;5.160;2023-03-21T08:59:11;24.48;;;7.90;;
68229;SDS011;55048;52.220;5.160;2023-03-21T09:01:36;22.75;;;5.72;;
68229;SDS011;55048;52.220;5.160;2023-03-21T09:04:02;14.90;;;5.75;;
68229;SDS011;55048;52.220;5.160;2023-03-21T09:06:28;13.43;;;5.80;;
68229;SDS011;55048;52.220;5.160;2023-03-21T09:08:54;18.20;;;5.72;;
68229;SDS011;55048;52.220;5.160;2023-03-21T09:11:20;18.38;;;5.85;;
68229;SDS011;55048;52.220;5.160;2023-03-21T09:13:46;15.10;;;5.57;;
68229;SDS011;55048;52.220;5.160;2023-03-21T09:16:11;14.85;;;4.78;;
68229;SDS011;55048;52.220;5.160;2023-03-21T09:18:37;19.40;;;5.78;;
68229;SDS011;55048;52.220;5.160;2023-03-21T09:21:11;16.70;;;5.70;;
68229;SDS011;55048;52.220;5.160;2023-03-21T09:23:39;12.98;;;4.55;;
68229;SDS011;55048;52.220;5.160;2023-03-21T09:26:05;12.18;;;4.32;;
68229;SDS011;55048;52.220;5.160;2023-03-21T09:28:32;15.35;;;5.05;;
68229;SDS011;55048;52.220;5.160;2023-03-21T09:30:59;14.68;;;4.82;;
68229;SDS011;55048;52.220;5.160;2023-03-21T09:33:26;13.73;;;4.68;;
68229;SDS011;55048;52.220;5.160;2023-03-21T09:35:53;13.88;;;4.53;;
68229;SDS011;55048;52.220;5.160;2023-03-21T09:38:19;11.10;;;4.57;;
68229;SDS011;55048;52.220;5.160;2023-03-21T09:49:33;15.73;;;4.25;;
68229;SDS011;55048;52.220;5.160;2023-03-21T09:52:05;10.00;;;3.60;;
68229;SDS011;55048;52.220;5.160;2023-03-21T09:54:39;9.25;;;4.43;;
68229;SDS011;55048;52.220;5.160;2023-03-21T09:59:47;22.27;;;5.40;;
68229;SDS011;55048;52.220;5.160;2023-03-21T10:02:25;8.68;;;4.15;;
68229;SDS011;55048;52.220;5.160;2023-03-21T10:05:00;20.70;;;4.63;;
68229;SDS011;55048;52.220;5.160;2023-03-21T10:07:35;8.18;;;3.75;;
68229;SDS011;55048;52.220;5.160;2023-03-21T10:10:05;10.27;;;2.67;;
68229;SDS011;55048;52.220;5.160;2023-03-21T10:12:36;16.50;;;4.72;;
68229;SDS011;55048;52.220;5.160;2023-03-21T10:15:02;12.65;;;5.03;;
68229;SDS011;55048;52.220;5.160;2023-03-21T10:17:35;11.05;;;4.35;;
68229;SDS011;55048;52.220;5.160;2023-03-21T10:22:45;9.63;;;5.10;;
68229;SDS011;55048;52.220;5.160;2023-03-21T10:25:14;10.57;;;4.18;;
68229;SDS011;55048;52.220;5.160;2023-03-21T10:27:43;11.40;;;4.28;;
68229;SDS011;55048;52.220;5.160;2023-03-21T10:30:17;16.70;;;4.40;;
68229;SDS011;55048;52.220;5.160;2023-03-21T10:32:48;16.63;;;4.68;;
68229;SDS011;55048;52.220;5.160;2023-03-21T10:35:14;11.77;;;4.93;;
68229;SDS011;55048;52.220;5.160;2023-03-21T10:37:39;10.90;;;4.07;;
68229;SDS011;55048;52.220;5.160;2023-03-21T10:40:05;11.55;;;4.88;;
68229;SDS011;55048;52.220;5.160;2023-03-21T10:42:33;15.68;;;5.45;;
68229;SDS011;55048;52.220;5.160;2023-03-21T10:45:00;14.52;;;4.75;;
68229;SDS011;55048;52.220;5.160;2023-03-21T10:47:28;13.45;;;5.22;;
68229;SDS011;55048;52.220;5.160;2023-03-21T10:50:00;13.43;;;4.43;;
68229;SDS011;55048;52.220;5.160;2023-03-21T10:52:26;10.15;;;4.07;;
68229;SDS011;55048;52.220;5.160;2023-03-21T10:57:32;15.43;;;4.65;;
68229;SDS011;55048;52.220;5.160;2023-03-21T11:00:02;12.50;;;4.47;;
68229;SDS011;55048;52.220;5.160;2023-03-21T11:02:38;14.57;;;4.22;;
68229;SDS011;55048;52.220;5.160;2023-03-21T11:05:06;11.40;;;4.45;;
68229;SDS011;55048;52.220;5.160;2023-03-21T11:07:43;9.75;;;4.60;;
68229;SDS011;55048;52.220;5.160;2023-03-21T11:10:14;12.75;;;4.38;;
68229;SDS011;55048;52.220;5.160;2023-03-21T11:12:50;10.60;;;4.20;;
68229;SDS011;55048;52.220;5.160;2023-03-21T11:15:29;13.30;;;4.03;;
68229;SDS011;55048;52.220;5.160;2023-03-21T11:17:57;13.23;;;4.03;;
68229;SDS011;55048;52.220;5.160;2023-03-21T11:20:24;16.63;;;4.40;;
68229;SDS011;55048;52.220;5.160;2023-03-21T11:22:53;9.32;;;3.15;;
68229;SDS011;55048;52.220;5.160;2023-03-21T11:25:36;9.32;;;3.83;;
68229;SDS011;55048;52.220;5.160;2023-03-21T11:28:11;10.18;;;4.68;;
68229;SDS011;55048;52.220;5.160;2023-03-21T11:33:38;7.20;;;4.13;;
68229;SDS011;55048;52.220;5.160;2023-03-21T11:38:42;14.07;;;4.97;;
68229;SDS011;55048;52.220;5.160;2023-03-21T11:41:11;11.75;;;4.50;;
68229;SDS011;55048;52.220;5.160;2023-03-21T11:43:57;10.90;;;3.90;;
68229;SDS011;55048;52.220;5.160;2023-03-21T11:46:24;12.43;;;4.05;;
68229;SDS011;55048;52.220;5.160;2023-03-21T11:48:51;14.75;;;4.68;;
68229;SDS011;55048;52.220;5.160;2023-03-21T11:57:05;12.80;;;4.35;;
68229;SDS011;55048;52.220;5.160;2023-03-21T11:59:46;10.40;;;3.92;;
68229;SDS011;55048;52.220;5.160;2023-03-21T12:05:15;11.10;;;4.72;;
68229;SDS011;55048;52.220;5.160;2023-03-21T12:16:04;13.75;;;4.72;;
68229;SDS011;55048;52.220;5.160;2023-03-21T12:19:07;12.93;;;5.20;;
68229;SDS011;55048;52.220;5.160;2023-03-21T12:24:23;10.73;;;4.05;;
68229;SDS011;55048;52.220;5.160;2023-03-21T12:45:47;10.23;;;4.13;;
68229;SDS011;55048;52.220;5.160;2023-03-21T12:48:18;9.10;;;3.45;;
68229;SDS011;55048;52.220;5.160;2023-03-21T12:50:51;16.65;;;3.63;;
68229;SDS011;55048;52.220;5.160;2023-03-21T12:56:02;7.88;;;3.72;;
68229;SDS011;55048;52.220;5.160;2023-03-21T12:58:34;6.82;;;3.17;;
68229;SDS011;55048;52.220;5.160;2023-03-21T13:01:09;8.30;;;3.53;;
68229;SDS011;55048;52.220;5.160;2023-03-21T13:06:09;8.50;;;3.28;;
68229;SDS011;55048;52.220;5.160;2023-03-21T13:11:14;6.65;;;2.85;;
68229;SDS011;55048;52.220;5.160;2023-03-21T13:13:46;6.07;;;2.80;;
68229;SDS011;55048;52.220;5.160;2023-03-21T13:16:22;8.43;;;2.92;;
68229;SDS011;55048;52.220;5.160;2023-03-21T13:19:01;13.82;;;3.50;;
68229;SDS011;55048;52.220;5.160;2023-03-21T13:21:46;5.88;;;2.75;;
68229;SDS011;55048;52.220;5.160;2023-03-21T13:27:03;10.10;;;3.50;;
68229;SDS011;55048;52.220;5.160;2023-03-21T13:29:42;8.65;;;3.30;;
68229;SDS011;55048;52.220;5.160;2023-03-21T13:37:41;12.50;;;3.80;;
68229;SDS011;55048;52.220;5.160;2023-03-21T13:54:02;6.80;;;3.50;;
68229;SDS011;55048;52.220;5.160;2023-03-21T13:59:11;9.85;;;4.07;;
68229;SDS011;55048;52.220;5.160;2023-03-21T14:04:41;8.45;;;3.67;;
68229;SDS011;55048;52.220;5.160;2023-03-21T14:07:12;9.80;;;4.20;;
68229;SDS011;55048;52.220;5.160;2023-03-21T14:09:49;8.43;;;3.30;;
68229;SDS011;55048;52.220;5.160;2023-03-21T14:12:24;11.23;;;4.05;;
68229;SDS011;55048;52.220;5.160;2023-03-21T14:15:16;10.77;;;3.95;;
68229;SDS011;55048;52.220;5.160;2023-03-21T14:18:16;9.95;;;3.80;;
68229;SDS011;55048;52.220;5.160;2023-03-21T14:20:41;10.75;;;3.55;;
68229;SDS011;55048;52.220;5.160;2023-03-21T14:23:09;12.05;;;4.20;;
68229;SDS011;55048;52.220;5.160;2023-03-21T14:25:38;9.20;;;4.15;;
68229;SDS011;55048;52.220;5.160;2023-03-21T14:28:41;8.13;;;3.75;;
68229;SDS011;55048;52.220;5.160;2023-03-21T14:31:00;11.07;;;4.25;;
68229;SDS011;55048;52.220;5.160;2023-03-21T14:33:35;8.40;;;4.35;;
68229;SDS011;55048;52.220;5.160;2023-03-21T14:36:05;6.82;;;3.72;;
68229;SDS011;55048;52.220;5.160;2023-03-21T14:38:36;8.68;;;4.03;;
68229;SDS011;55048;52.220;5.160;2023-03-21T14:41:03;9.95;;;4.45;;
68229;SDS011;55048;52.220;5.160;2023-03-21T14:43:30;13.60;;;4.32;;
68229;SDS011;55048;52.220;5.160;2023-03-21T14:45:58;8.98;;;4.57;;
68229;SDS011;55048;52.220;5.160;2023-03-21T14:48:32;6.72;;;4.13;;
68229;SDS011;55048;52.220;5.160;2023-03-21T14:51:03;8.85;;;3.10;;
68229;SDS011;55048;52.220;5.160;2023-03-21T14:53:40;8.95;;;3.65;;
68229;SDS011;55048;52.220;5.160;2023-03-21T14:56:15;8.98;;;3.88;;
68229;SDS011;55048;52.220;5.160;2023-03-21T14:58:45;6.93;;;3.45;;
68229;SDS011;55048;52.220;5.160;2023-03-21T15:01:21;11.73;;;4.55;;
68229;SDS011;55048;52.220;5.160;2023-03-21T15:03:53;9.70;;;3.38;;
68229;SDS011;55048;52.220;5.160;2023-03-21T15:06:19;9.70;;;3.70;;
68229;SDS011;55048;52.220;5.160;2023-03-21T15:08:54;11.55;;;4.15;;
68229;SDS011;55048;52.220;5.160;2023-03-21T15:11:31;8.10;;;4.35;;
68229;SDS011;55048;52.220;5.160;2023-03-21T15:14:00;9.30;;;3.50;;
68229;SDS011;55048;52.220;5.160;2023-03-21T15:16:35;11.10;;;3.88;;
68229;SDS011;55048;52.220;5.160;2023-03-21T15:19:01;9.32;;;4.30;;
68229;SDS011;55048;52.220;5.160;2023-03-21T15:21:38;12.73;;;3.88;;
68229;SDS011;55048;52.220;5.160;2023-03-21T15:24:09;9.18;;;3.78;;
68229;SDS011;55048;52.220;5.160;2023-03-21T15:26:39;6.15;;;2.78;;
68229;SDS011;55048;52.220;5.160;2023-03-21T15:29:09;10.38;;;3.53;;
68229;SDS011;55048;52.220;5.160;2023-03-21T15:31:35;11.10;;;3.58;;
68229;SDS011;55048;52.220;5.160;2023-03-21T15:34:04;8.13;;;3.30;;
68229;SDS011;55048;52.220;5.160;2023-03-21T15:36:34;6.60;;;2.70;;
68229;SDS011;55048;52.220;5.160;2023-03-21T15:39:05;7.65;;;2.92;;
68229;SDS011;55048;52.220;5.160;2023-03-21T15:41:32;12.65;;;3.33;;
68229;SDS011;55048;52.220;5.160;2023-03-21T15:46:33;11.15;;;3.20;;
68229;SDS011;55048;52.220;5.160;2023-03-21T15:51:40;11.25;;;2.97;;
68229;SDS011;55048;52.220;5.160;2023-03-21T15:54:11;8.05;;;3.35;;
68229;SDS011;55048;52.220;5.160;2023-03-21T15:56:41;7.20;;;2.80;;
68229;SDS011;55048;52.220;5.160;2023-03-21T15:59:11;8.65;;;2.60;;
68229;SDS011;55048;52.220;5.160;2023-03-21T16:01:43;5.75;;;3.28;;
68229;SDS011;55048;52.220;5.160;2023-03-21T16:04:11;14.93;;;4.50;;
68229;SDS011;55048;52.220;5.160;2023-03-21T16:09:38;7.80;;;3.45;;
68229;SDS011;55048;52.220;5.160;2023-03-21T16:12:08;10.07;;;3.30;;
68229;SDS011;55048;52.220;5.160;2023-03-21T16:14:36;4.30;;;2.20;;
68229;SDS011;55048;52.220;5.160;2023-03-21T16:17:12;14.73;;;3.45;;
68229;SDS011;55048;52.220;5.160;2023-03-21T16:19:47;9.35;;;3.13;;
68229;SDS011;55048;52.220;5.160;2023-03-21T16:22:13;7.78;;;3.17;;
68229;SDS011;55048;52.220;5.160;2023-03-21T16:24:38;7.57;;;3.13;;
68229;SDS011;55048;52.220;5.160;2023-03-21T16:27:04;12.07;;;3.78;;
68229;SDS011;55048;52.220;5.160;2023-03-21T16:29:29;8.93;;;3.38;;
68229;SDS011;55048;52.220;5.160;2023-03-21T16:31:55;4.68;;;3.58;;
68229;SDS011;55048;52.220;5.160;2023-03-21T16:34:20;9.00;;;3.05;;
68229;SDS011;55048;52.220;5.160;2023-03-21T16:36:46;8.32;;;3.05;;
68229;SDS011;55048;52.220;5.160;2023-03-21T16:41:42;8.18;;;2.92;;
68229;SDS011;55048;52.220;5.160;2023-03-21T16:44:07;6.90;;;2.70;;
68229;SDS011;55048;52.220;5.160;2023-03-21T16:46:32;5.50;;;2.47;;
68229;SDS011;55048;52.220;5.160;2023-03-21T16:48:58;5.53;;;2.13;;
68229;SDS011;55048;52.220;5.160;2023-03-21T16:51:24;2.85;;;2.38;;
68229;SDS011;55048;52.220;5.160;2023-03-21T16:54:00;4.80;;;2.05;;
68229;SDS011;55048;52.220;5.160;2023-03-21T16:56:28;6.20;;;2.03;;
68229;SDS011;55048;52.220;5.160;2023-03-21T16:58:57;5.72;;;1.73;;
68229;SDS011;55048;52.220;5.160;2023-03-21T17:01:23;7.30;;;1.50;;